createdAt,value
2023-03-30T00:00:19.050Z,80.83
2023-03-30T00:01:19.032Z,80.83
2023-03-30T00:02:19.022Z,80.62
2023-03-30T00:03:19.150Z,80.73
2023-03-30T00:04:19.090Z,80.76
2023-03-30T00:05:19.209Z,80.62
2023-03-30T00:06:19.002Z,80.87
2023-03-30T00:07:18.974Z,80.87
2023-03-30T00:08:18.983Z,81.07
2023-03-30T00:09:18.995Z,80.87
2023-03-30T00:10:18.920Z,80.66
2023-03-30T00:11:18.918Z,80.87
2023-03-30T00:12:18.916Z,80.97
2023-03-30T00:13:18.888Z,80.87
2023-03-30T00:14:18.876Z,81.17
2023-03-30T00:15:18.873Z,81.38
2023-03-30T00:16:18.915Z,81.27
2023-03-30T00:17:18.870Z,81.27
2023-03-30T00:18:18.841Z,81.27
2023-03-30T00:19:18.881Z,81.17
2023-03-30T00:20:18.911Z,81.38
2023-03-30T00:21:18.808Z,81.38
2023-03-30T00:22:18.804Z,81.27
2023-03-30T00:23:18.796Z,81.17
2023-03-30T00:24:18.815Z,81.17
2023-03-30T00:25:18.801Z,81.41
2023-03-30T00:26:18.768Z,81.51
2023-03-30T00:27:18.785Z,81.62
2023-03-30T00:28:18.772Z,81.51
2023-03-30T00:29:18.732Z,81.17
2023-03-30T00:30:18.731Z,80.87
2023-03-30T00:31:18.753Z,80.97
2023-03-30T00:32:18.693Z,81.27
2023-03-30T00:33:18.679Z,80.97
2023-03-30T00:34:18.748Z,81.27
2023-03-30T00:35:18.680Z,81.21
2023-03-30T00:36:18.728Z,81.41
2023-03-30T00:37:18.660Z,81.21
2023-03-30T00:38:18.788Z,81.31
2023-03-30T00:39:18.638Z,81.07
2023-03-30T00:40:18.613Z,80.76
2023-03-30T00:41:18.598Z,80.66
2023-03-30T00:42:18.584Z,80.87
2023-03-30T00:43:18.558Z,80.76
2023-03-30T00:44:18.552Z,80.87
2023-03-30T00:45:18.576Z,80.87
2023-03-30T00:46:18.562Z,80.87
2023-03-30T00:47:18.531Z,80.56
2023-03-30T00:48:18.549Z,80.46
2023-03-30T00:49:18.497Z,80.56
2023-03-30T00:50:18.530Z,80.76
2023-03-30T00:51:18.481Z,81.10
2023-03-30T00:52:18.603Z,81.41
2023-03-30T00:53:18.467Z,81.51
2023-03-30T00:54:18.485Z,81.41
2023-03-30T00:55:18.437Z,81.31
2023-03-30T00:56:18.433Z,81.10
2023-03-30T00:57:18.472Z,81.31
2023-03-30T00:58:18.396Z,81.31
2023-03-30T00:59:18.392Z,81.31
2023-03-30T01:00:18.379Z,81.51
2023-03-30T01:01:18.391Z,81.65
2023-03-30T01:02:18.373Z,81.86
2023-03-30T01:03:18.432Z,82.07
2023-03-30T01:04:18.341Z,82.17
2023-03-30T01:05:18.322Z,82.37
2023-03-30T01:06:18.312Z,82.48
2023-03-30T01:07:18.303Z,82.48
2023-03-30T01:08:18.469Z,82.48
2023-03-30T01:09:18.285Z,82.17
2023-03-30T01:10:18.267Z,81.96
2023-03-30T01:11:18.277Z,82.07
2023-03-30T01:12:18.246Z,81.76
2023-03-30T01:13:18.249Z,81.86
2023-03-30T01:14:18.233Z,81.86
2023-03-30T01:15:18.253Z,81.56
2023-03-30T01:16:18.317Z,81.45
2023-03-30T01:17:18.201Z,81.21
2023-03-30T01:18:18.197Z,81.56
2023-03-30T01:19:18.171Z,81.04
2023-03-30T01:20:18.165Z,81.04
2023-03-30T01:21:18.185Z,81.15
2023-03-30T01:22:18.136Z,81.04
2023-03-30T01:23:18.130Z,81.35
2023-03-30T01:24:18.124Z,81.15
2023-03-30T01:25:18.161Z,81.04
2023-03-30T01:26:18.096Z,80.83
2023-03-30T01:27:18.086Z,80.60
2023-03-30T01:28:18.087Z,80.69
2023-03-30T01:29:18.062Z,80.29
2023-03-30T01:30:18.059Z,80.08
2023-03-30T01:31:18.103Z,80.08
2023-03-30T01:32:18.019Z,79.78
2023-03-30T01:33:18.026Z,79.33
2023-03-30T01:34:18.029Z,79.33
2023-03-30T01:35:18.065Z,78.52
2023-03-30T01:36:18.056Z,78.52
2023-03-30T01:37:18.008Z,78.17
2023-03-30T01:38:18.006Z,78.17
2023-03-30T01:39:17.945Z,77.97
2023-03-30T01:40:17.937Z,77.86
2023-03-30T01:41:17.945Z,77.97
2023-03-30T01:42:17.933Z,77.66
2023-03-30T01:43:17.943Z,77.76
2023-03-30T01:44:17.925Z,77.45
2023-03-30T01:45:17.883Z,77.25
2023-03-30T01:46:17.912Z,77.45
2023-03-30T01:47:17.881Z,76.84
2023-03-30T01:48:18.013Z,76.29
2023-03-30T01:49:17.842Z,76.09
2023-03-30T01:50:17.851Z,76.19
2023-03-30T01:51:17.811Z,75.58
2023-03-30T01:52:17.817Z,75.48
2023-03-30T01:53:17.839Z,75.37
2023-03-30T01:54:17.794Z,74.97
2023-03-30T01:55:17.781Z,74.83
2023-03-30T01:56:17.764Z,74.63
2023-03-30T01:57:17.793Z,74.32
2023-03-30T01:58:17.746Z,74.18
2023-03-30T01:59:17.738Z,73.67
2023-03-30T02:00:17.761Z,73.27
2023-03-30T02:01:17.719Z,72.96
2023-03-30T02:02:17.738Z,72.55
2023-03-30T02:03:17.857Z,72.72
2023-03-30T02:04:17.679Z,72.41
2023-03-30T02:05:17.675Z,72.21
2023-03-30T02:06:17.700Z,72.41
2023-03-30T02:07:17.660Z,71.91
2023-03-30T02:08:17.689Z,71.91
2023-03-30T02:09:17.623Z,72.52
2023-03-30T02:10:17.615Z,71.80
2023-03-30T02:11:17.644Z,71.50
2023-03-30T02:12:17.594Z,71.60
2023-03-30T02:13:17.665Z,70.85
2023-03-30T02:14:17.566Z,70.34
2023-03-30T02:15:17.624Z,70.04
2023-03-30T02:16:17.555Z,69.49
2023-03-30T02:17:17.534Z,69.59
2023-03-30T02:18:17.555Z,69.49
2023-03-30T02:19:17.544Z,69.09
2023-03-30T02:20:17.618Z,69.09
2023-03-30T02:21:17.518Z,68.78
2023-03-30T02:22:17.490Z,68.48
2023-03-30T02:23:17.475Z,68.37
2023-03-30T02:24:17.466Z,68.85
2023-03-30T02:25:17.471Z,68.04
2023-03-30T02:26:17.439Z,68.27
2023-03-30T02:27:17.427Z,67.83
2023-03-30T02:28:17.418Z,67.02
2023-03-30T02:29:17.452Z,66.82
2023-03-30T02:30:17.419Z,66.71
2023-03-30T02:31:17.441Z,66.82
2023-03-30T02:32:17.366Z,66.91
2023-03-30T02:33:17.369Z,66.00
2023-03-30T02:34:17.362Z,65.77
2023-03-30T02:35:17.359Z,66.68
2023-03-30T02:36:17.433Z,66.30
2023-03-30T02:37:17.340Z,67.12
2023-03-30T02:38:17.340Z,66.71
2023-03-30T02:39:17.284Z,66.91
2023-03-30T02:40:17.282Z,66.50
2023-03-30T02:41:17.350Z,66.10
2023-03-30T02:42:17.270Z,65.69
2023-03-30T02:43:17.254Z,65.16
2023-03-30T02:44:17.239Z,64.75
2023-03-30T02:45:17.221Z,64.84
2023-03-30T02:46:17.276Z,64.54
2023-03-30T02:47:17.204Z,64.23
2023-03-30T02:48:17.250Z,64.41
2023-03-30T02:49:17.171Z,63.90
2023-03-30T02:50:17.182Z,64.41
2023-03-30T02:51:17.153Z,64.34
2023-03-30T02:52:17.145Z,64.34
2023-03-30T02:53:17.151Z,64.23
2023-03-30T02:54:17.903Z,64.44
2023-03-30T02:55:17.113Z,63.62
2023-03-30T02:56:17.099Z,63.19
2023-03-30T02:57:17.092Z,63.39
2023-03-30T02:58:17.080Z,63.09
2023-03-30T02:59:17.103Z,63.09
2023-03-30T03:00:17.072Z,62.58
2023-03-30T03:01:17.074Z,62.45
2023-03-30T03:02:17.089Z,62.35
2023-03-30T03:03:17.172Z,62.14
2023-03-30T03:04:17.023Z,62.24
2023-03-30T03:05:17.001Z,61.33
2023-03-30T03:06:17.019Z,61.43
2023-03-30T03:07:16.987Z,61.10
2023-03-30T03:08:16.994Z,61.53
2023-03-30T03:09:16.951Z,61.74
2023-03-30T03:10:16.978Z,61.53
2023-03-30T03:11:16.937Z,61.83
2023-03-30T03:12:16.931Z,61.33
2023-03-30T03:13:16.910Z,61.51
2023-03-30T03:14:16.895Z,61.40
2023-03-30T03:15:16.892Z,61.51
2023-03-30T03:16:16.891Z,61.40
2023-03-30T03:17:16.943Z,61.81
2023-03-30T03:18:16.861Z,61.71
2023-03-30T03:19:16.860Z,61.20
2023-03-30T03:20:16.858Z,61.10
2023-03-30T03:21:16.843Z,61.51
2023-03-30T03:22:16.822Z,61.71
2023-03-30T03:23:16.926Z,61.60
2023-03-30T03:24:16.863Z,61.91
2023-03-30T03:25:16.786Z,62.11
2023-03-30T03:26:16.763Z,62.01
2023-03-30T03:27:16.760Z,61.51
2023-03-30T03:28:16.771Z,61.40
2023-03-30T03:29:16.851Z,61.40
2023-03-30T03:30:16.737Z,61.60
2023-03-30T03:31:16.757Z,61.91
2023-03-30T03:32:16.698Z,61.81
2023-03-30T03:33:16.779Z,61.51
2023-03-30T03:34:16.686Z,61.71
2023-03-30T03:35:16.682Z,61.68
2023-03-30T03:36:16.705Z,62.32
2023-03-30T03:37:16.645Z,61.91
2023-03-30T03:38:16.636Z,61.91
2023-03-30T03:39:16.615Z,62.01
2023-03-30T03:40:16.739Z,62.32
2023-03-30T03:41:16.609Z,63.02
2023-03-30T03:42:16.599Z,62.96
2023-03-30T03:43:16.650Z,62.96
2023-03-30T03:44:16.594Z,62.96
2023-03-30T03:45:16.603Z,63.46
2023-03-30T03:46:16.623Z,63.77
2023-03-30T03:47:16.780Z,63.57
2023-03-30T03:48:16.533Z,63.36
2023-03-30T03:49:16.502Z,63.16
2023-03-30T03:50:16.516Z,63.06
2023-03-30T03:51:16.490Z,63.06
2023-03-30T03:52:16.497Z,63.77
2023-03-30T03:53:16.476Z,63.46
2023-03-30T03:54:16.488Z,63.26
2023-03-30T03:55:16.452Z,63.06
2023-03-30T03:56:16.446Z,63.46
2023-03-30T03:57:16.451Z,63.46
2023-03-30T03:58:16.423Z,63.16
2023-03-30T03:59:16.464Z,63.06
2023-03-30T04:00:16.538Z,63.26
2023-03-30T04:01:16.377Z,63.36
2023-03-30T04:02:16.382Z,63.26
2023-03-30T04:03:16.452Z,63.67
2023-03-30T04:04:16.392Z,63.06
2023-03-30T04:05:16.364Z,63.16
2023-03-30T04:06:16.359Z,63.36
2023-03-30T04:07:16.373Z,63.26
2023-03-30T04:08:16.305Z,63.36
2023-03-30T04:09:16.291Z,63.26
2023-03-30T04:10:16.283Z,63.36
2023-03-30T04:11:16.270Z,63.06
2023-03-30T04:12:16.287Z,63.36
2023-03-30T04:13:16.242Z,63.26
2023-03-30T04:14:16.250Z,62.96
2023-03-30T04:15:16.223Z,63.87
2023-03-30T04:16:16.252Z,63.16
2023-03-30T04:17:16.208Z,63.36
2023-03-30T04:18:16.209Z,63.26
2023-03-30T04:19:16.171Z,63.46
2023-03-30T04:20:16.169Z,63.54
2023-03-30T04:21:16.167Z,63.13
2023-03-30T04:22:16.166Z,63.64
2023-03-30T04:23:16.181Z,63.33
2023-03-30T04:24:16.166Z,63.13
2023-03-30T04:25:16.151Z,63.13
2023-03-30T04:26:16.103Z,63.02
2023-03-30T04:27:16.089Z,63.23
2023-03-30T04:28:16.086Z,62.82
2023-03-30T04:29:16.084Z,62.82
2023-03-30T04:30:16.129Z,63.13
2023-03-30T04:31:16.136Z,63.33
2023-03-30T04:32:16.049Z,63.43
2023-03-30T04:33:16.026Z,62.93
2023-03-30T04:34:16.011Z,63.33
2023-03-30T04:35:16.034Z,63.33
2023-03-30T04:36:16.089Z,63.23
2023-03-30T04:37:15.989Z,63.23
2023-03-30T04:38:15.975Z,63.13
2023-03-30T04:39:16.089Z,63.02
2023-03-30T04:40:15.972Z,62.90
2023-03-30T04:41:15.925Z,62.79
2023-03-30T04:42:16.022Z,63.30
2023-03-30T04:43:15.957Z,63.30
2023-03-30T04:44:15.942Z,63.20
2023-03-30T04:45:15.863Z,63.33
2023-03-30T04:46:15.916Z,63.00
2023-03-30T04:47:16.025Z,63.10
2023-03-30T04:48:15.826Z,63.10
2023-03-30T04:49:15.817Z,63.10
2023-03-30T04:50:15.801Z,63.20
2023-03-30T04:51:15.785Z,63.60
2023-03-30T04:52:15.779Z,63.64
2023-03-30T04:53:15.787Z,63.64
2023-03-30T04:54:15.761Z,63.54
2023-03-30T04:55:15.812Z,63.54
2023-03-30T04:56:15.743Z,63.64
2023-03-30T04:57:15.786Z,63.84
2023-03-30T04:58:15.745Z,63.74
2023-03-30T04:59:15.698Z,64.04
2023-03-30T05:00:15.718Z,64.25
2023-03-30T05:01:15.762Z,64.25
2023-03-30T05:02:15.792Z,64.76
2023-03-30T05:03:15.815Z,64.76
2023-03-30T05:04:15.647Z,65.09
2023-03-30T05:05:15.623Z,64.79
2023-03-30T05:06:15.648Z,65.19
2023-03-30T05:07:15.622Z,64.76
2023-03-30T05:08:15.603Z,64.45
2023-03-30T05:09:15.639Z,64.45
2023-03-30T05:10:15.579Z,64.76
2023-03-30T05:11:15.570Z,65.06
2023-03-30T05:12:15.571Z,64.86
2023-03-30T05:13:15.539Z,65.16
2023-03-30T05:14:15.541Z,65.26
2023-03-30T05:15:15.514Z,65.80
2023-03-30T05:16:15.748Z,65.60
2023-03-30T05:17:15.694Z,65.50
2023-03-30T05:18:15.562Z,65.16
2023-03-30T05:19:15.493Z,65.06
2023-03-30T05:20:15.473Z,65.47
2023-03-30T05:21:15.452Z,65.36
2023-03-30T05:22:15.437Z,65.16
2023-03-30T05:23:15.445Z,65.16
2023-03-30T05:24:15.445Z,65.57
2023-03-30T05:25:15.426Z,65.36
2023-03-30T05:26:15.620Z,65.67
2023-03-30T05:27:15.458Z,65.67
2023-03-30T05:28:15.392Z,65.77
2023-03-30T05:29:15.382Z,65.88
2023-03-30T05:30:15.365Z,66.08
2023-03-30T05:31:15.413Z,66.41
2023-03-30T05:32:15.363Z,66.31
2023-03-30T05:33:15.419Z,66.21
2023-03-30T05:34:15.318Z,66.08
2023-03-30T05:35:15.321Z,66.61
2023-03-30T05:36:15.318Z,66.41
2023-03-30T05:37:15.319Z,66.82
2023-03-30T05:38:15.270Z,66.72
2023-03-30T05:39:15.278Z,66.52
2023-03-30T05:40:15.267Z,66.28
2023-03-30T05:41:15.246Z,66.28
2023-03-30T05:42:15.225Z,66.38
2023-03-30T05:43:15.203Z,66.28
2023-03-30T05:44:15.202Z,66.79
2023-03-30T05:45:15.193Z,66.72
2023-03-30T05:46:15.324Z,67.22
2023-03-30T05:47:15.217Z,67.13
2023-03-30T05:48:15.204Z,67.22
2023-03-30T05:49:15.197Z,67.22
2023-03-30T05:50:15.144Z,67.83
2023-03-30T05:51:15.122Z,67.83
2023-03-30T05:52:15.118Z,68.04
2023-03-30T05:53:15.137Z,68.55
2023-03-30T05:54:15.172Z,67.83
2023-03-30T05:55:15.127Z,68.24
2023-03-30T05:56:15.098Z,67.22
2023-03-30T05:57:15.164Z,67.63
2023-03-30T05:58:15.047Z,67.94
2023-03-30T05:59:15.036Z,68.14
2023-03-30T06:00:15.075Z,67.74
2023-03-30T06:01:15.038Z,67.94
2023-03-30T06:02:14.998Z,67.83
2023-03-30T06:03:15.070Z,67.83
2023-03-30T06:04:15.224Z,67.43
2023-03-30T06:05:15.046Z,67.83
2023-03-30T06:06:14.985Z,67.74
2023-03-30T06:07:14.966Z,68.24
2023-03-30T06:08:14.917Z,67.83
2023-03-30T06:09:14.957Z,67.83
2023-03-30T06:10:14.924Z,67.63
2023-03-30T06:11:15.035Z,67.83
2023-03-30T06:12:14.906Z,68.14
2023-03-30T06:13:14.992Z,68.14
2023-03-30T06:14:14.866Z,68.14
2023-03-30T06:15:14.866Z,67.83
2023-03-30T06:16:14.938Z,68.14
2023-03-30T06:17:14.905Z,67.94
2023-03-30T06:18:14.880Z,68.24
2023-03-30T06:19:14.853Z,67.74
2023-03-30T06:20:14.824Z,67.53
2023-03-30T06:21:14.796Z,67.74
2023-03-30T06:22:14.772Z,67.33
2023-03-30T06:23:14.840Z,67.53
2023-03-30T06:24:14.766Z,68.35
2023-03-30T06:25:14.791Z,68.24
2023-03-30T06:26:14.723Z,68.24
2023-03-30T06:27:14.866Z,67.63
2023-03-30T06:28:14.711Z,67.94
2023-03-30T06:29:14.730Z,67.63
2023-03-30T06:30:14.693Z,68.14
2023-03-30T06:31:14.723Z,68.14
2023-03-30T06:32:14.850Z,68.14
2023-03-30T06:33:14.665Z,67.94
2023-03-30T06:34:14.911Z,67.83
2023-03-30T06:35:14.662Z,68.24
2023-03-30T06:36:14.667Z,68.65
2023-03-30T06:37:14.613Z,68.44
2023-03-30T06:38:14.659Z,67.74
2023-03-30T06:39:14.662Z,68.14
2023-03-30T06:40:14.603Z,68.14
2023-03-30T06:41:14.596Z,68.24
2023-03-30T06:42:14.570Z,68.14
2023-03-30T06:43:14.570Z,67.63
2023-03-30T06:44:14.565Z,67.83
2023-03-30T06:45:14.540Z,67.43
2023-03-30T06:46:14.578Z,67.53
2023-03-30T06:47:14.535Z,67.71
2023-03-30T06:48:14.504Z,67.80
2023-03-30T06:49:14.650Z,68.04
2023-03-30T06:50:14.494Z,67.74
2023-03-30T06:51:14.469Z,67.53
2023-03-30T06:52:14.604Z,67.80
2023-03-30T06:53:14.443Z,67.19
2023-03-30T06:54:14.432Z,67.40
2023-03-30T06:55:14.411Z,67.60
2023-03-30T06:56:14.398Z,68.01
2023-03-30T06:57:14.576Z,68.11
2023-03-30T06:58:14.376Z,67.30
2023-03-30T06:59:14.385Z,67.91
2023-03-30T07:00:14.376Z,67.40
2023-03-30T07:01:14.412Z,67.80
2023-03-30T07:02:14.388Z,67.60
2023-03-30T07:03:14.334Z,67.19
2023-03-30T07:04:14.386Z,67.71
2023-03-30T07:05:14.337Z,67.60
2023-03-30T07:06:14.454Z,68.01
2023-03-30T07:07:14.285Z,67.80
2023-03-30T07:08:14.352Z,67.80
2023-03-30T07:09:14.272Z,68.52
2023-03-30T07:10:14.251Z,67.50
2023-03-30T07:11:14.243Z,67.91
2023-03-30T07:12:14.236Z,68.01
2023-03-30T07:13:14.259Z,68.82
2023-03-30T07:14:14.212Z,68.01
2023-03-30T07:15:14.382Z,68.41
2023-03-30T07:16:14.244Z,68.32
2023-03-30T07:17:14.311Z,68.11
2023-03-30T07:18:14.260Z,68.62
2023-03-30T07:19:14.170Z,68.38
2023-03-30T07:20:14.177Z,68.28
2023-03-30T07:21:14.148Z,68.18
2023-03-30T07:22:14.152Z,68.08
2023-03-30T07:23:14.115Z,68.18
2023-03-30T07:24:14.115Z,68.59
2023-03-30T07:25:14.108Z,68.28
2023-03-30T07:26:14.068Z,68.28
2023-03-30T07:27:14.100Z,68.89
2023-03-30T07:28:14.099Z,68.38
2023-03-30T07:29:14.078Z,68.28
2023-03-30T07:30:21.119Z,68.28
2023-03-30T07:31:14.118Z,68.18
2023-03-30T07:32:14.028Z,68.38
2023-03-30T07:33:14.050Z,68.76
2023-03-30T07:34:14.013Z,68.79
2023-03-30T07:35:13.993Z,68.86
2023-03-30T07:36:14.053Z,68.76
2023-03-30T07:37:19.994Z,68.96
2023-03-30T07:38:13.994Z,68.96
2023-03-30T07:39:13.956Z,68.86
2023-03-30T07:40:13.953Z,69.26
2023-03-30T07:41:13.915Z,68.96
2023-03-30T07:42:13.916Z,68.66
2023-03-30T07:43:13.903Z,69.57
2023-03-30T07:44:13.878Z,69.87
2023-03-30T07:45:16.123Z,68.66
2023-03-30T07:46:13.896Z,68.62
2023-03-30T07:47:13.855Z,69.64
2023-03-30T07:48:13.876Z,69.23
2023-03-30T07:49:13.827Z,68.22
2023-03-30T07:50:13.823Z,68.52
2023-03-30T07:51:13.886Z,68.42
2023-03-30T07:52:13.835Z,68.52
2023-03-30T07:53:13.796Z,68.93
2023-03-30T07:54:13.778Z,69.26
2023-03-30T07:55:13.748Z,69.37
2023-03-30T07:56:13.736Z,69.47
2023-03-30T07:57:13.789Z,69.23
2023-03-30T07:58:13.718Z,69.74
2023-03-30T07:59:13.889Z,68.93
2023-03-30T08:00:13.705Z,69.87
2023-03-30T08:01:13.733Z,70.28
2023-03-30T08:02:13.672Z,70.38
2023-03-30T08:03:13.723Z,70.82
2023-03-30T08:04:13.779Z,69.70
2023-03-30T08:05:13.825Z,70.11
2023-03-30T08:06:13.651Z,71.03
2023-03-30T08:07:13.622Z,70.08
2023-03-30T08:08:13.710Z,69.87
2023-03-30T08:09:13.596Z,68.62
2023-03-30T08:10:13.612Z,68.49
2023-03-30T08:11:13.586Z,67.98
2023-03-30T08:12:13.599Z,67.75
2023-03-30T08:13:13.565Z,67.82
2023-03-30T08:14:13.537Z,67.51
2023-03-30T08:15:13.734Z,67.61
2023-03-30T08:16:13.562Z,67.41
2023-03-30T08:17:13.519Z,65.28
2023-03-30T08:18:13.571Z,65.86
2023-03-30T08:19:13.490Z,64.95
2023-03-30T08:20:13.485Z,65.05
2023-03-30T08:21:13.501Z,64.98
2023-03-30T08:22:13.550Z,65.59
2023-03-30T08:23:13.461Z,66.19
2023-03-30T08:24:13.446Z,66.37
2023-03-30T08:25:13.423Z,65.05
2023-03-30T08:26:13.401Z,64.41
2023-03-30T08:27:13.552Z,65.05
2023-03-30T08:28:13.409Z,65.66
2023-03-30T08:29:13.875Z,65.76
2023-03-30T08:30:13.426Z,65.48
2023-03-30T08:31:13.485Z,66.30
2023-03-30T08:32:13.331Z,65.82
2023-03-30T08:33:13.417Z,66.46
2023-03-30T08:34:13.306Z,67.17
2023-03-30T08:35:13.350Z,67.78
2023-03-30T08:36:13.310Z,67.58
2023-03-30T08:37:13.293Z,68.70
2023-03-30T08:38:13.321Z,68.59
2023-03-30T08:39:13.264Z,67.68
2023-03-30T08:40:13.277Z,67.68
2023-03-30T08:41:13.244Z,68.46
2023-03-30T08:42:13.254Z,67.75
2023-03-30T08:43:13.236Z,67.82
2023-03-30T08:44:13.202Z,68.32
2023-03-30T08:45:13.210Z,66.19
2023-03-30T08:46:13.215Z,65.79
2023-03-30T08:47:13.206Z,65.79
2023-03-30T08:48:13.193Z,66.40
2023-03-30T08:49:13.159Z,65.39
2023-03-30T08:50:13.151Z,66.70
2023-03-30T08:51:13.128Z,65.99
2023-03-30T08:52:13.134Z,66.16
2023-03-30T08:53:13.129Z,64.75
2023-03-30T08:54:13.128Z,65.83
2023-03-30T08:55:13.077Z,64.41
2023-03-30T08:56:13.082Z,64.25
2023-03-30T08:57:13.087Z,64.39
2023-03-30T08:58:13.130Z,63.15
2023-03-30T08:59:13.068Z,63.02
2023-03-30T09:00:13.037Z,61.72
2023-03-30T09:01:13.124Z,58.56
2023-03-30T09:02:13.006Z,61.04
2023-03-30T09:03:13.036Z,60.87
2023-03-30T09:04:12.985Z,62.11
2023-03-30T09:05:13.072Z,63.45
2023-03-30T09:06:12.973Z,62.87
2023-03-30T09:07:12.977Z,63.10
2023-03-30T09:08:13.091Z,63.37
2023-03-30T09:09:12.973Z,64.69
2023-03-30T09:10:12.931Z,66.10
2023-03-30T09:11:12.916Z,64.92
2023-03-30T09:12:12.905Z,65.42
2023-03-30T09:13:12.949Z,65.73
2023-03-30T09:14:12.865Z,66.33
2023-03-30T09:15:13.025Z,65.19
2023-03-30T09:16:12.897Z,65.42
2023-03-30T09:17:12.884Z,64.79
2023-03-30T09:18:12.934Z,64.79
2023-03-30T09:19:12.908Z,66.03
2023-03-30T09:20:12.821Z,67.25
2023-03-30T09:21:12.841Z,66.13
2023-03-30T09:22:12.776Z,66.54
2023-03-30T09:23:12.803Z,66.67
2023-03-30T09:24:12.769Z,67.99
2023-03-30T09:25:12.743Z,66.91
2023-03-30T09:26:12.737Z,67.72
2023-03-30T09:27:12.767Z,67.44
2023-03-30T09:28:12.734Z,67.85
2023-03-30T09:29:12.721Z,69.40
2023-03-30T09:30:12.724Z,71.73
2023-03-30T09:31:12.697Z,73.60
2023-03-30T09:32:12.744Z,72.92
2023-03-30T09:33:12.780Z,73.67
2023-03-30T09:34:14.179Z,74.28
2023-03-30T09:35:12.677Z,73.67
2023-03-30T09:36:12.832Z,73.36
2023-03-30T09:37:12.617Z,73.26
2023-03-30T09:38:12.790Z,72.25
2023-03-30T09:39:12.602Z,71.43
2023-03-30T09:40:12.575Z,71.94
2023-03-30T09:41:12.600Z,71.30
2023-03-30T09:42:12.575Z,70.62
2023-03-30T09:43:12.668Z,67.25
2023-03-30T09:44:12.534Z,63.10
2023-03-30T09:45:12.543Z,63.85
2023-03-30T09:46:12.521Z,62.96
2023-03-30T09:47:12.535Z,60.65
2023-03-30T09:48:12.515Z,58.38
2023-03-30T09:49:12.501Z,58.28
2023-03-30T09:50:12.484Z,59.84
2023-03-30T09:51:12.471Z,62.15
2023-03-30T09:52:12.555Z,62.82
2023-03-30T09:53:12.439Z,62.76
2023-03-30T09:54:12.478Z,60.97
2023-03-30T09:55:12.510Z,61.03
2023-03-30T09:56:12.462Z,61.29
2023-03-30T09:57:12.435Z,61.03
2023-03-30T09:58:12.429Z,63.34
2023-03-30T09:59:12.375Z,64.38
2023-03-30T10:00:12.408Z,65.62
2023-03-30T10:01:12.449Z,67.14
2023-03-30T10:02:12.433Z,68.52
2023-03-30T10:03:12.474Z,72.08
2023-03-30T10:04:12.720Z,73.94
2023-03-30T10:05:12.323Z,74.99
2023-03-30T10:06:12.297Z,74.85
2023-03-30T10:07:18.527Z,72.78
2023-03-30T10:08:12.333Z,71.91
2023-03-30T10:09:12.363Z,72.58
2023-03-30T10:10:12.261Z,73.94
2023-03-30T10:11:12.265Z,74.89
2023-03-30T10:12:12.246Z,76.01
2023-03-30T10:13:12.276Z,75.81
2023-03-30T10:14:12.287Z,75.67
2023-03-30T10:15:12.184Z,75.57
2023-03-30T10:16:12.238Z,76.07
2023-03-30T10:17:12.169Z,75.09
2023-03-30T10:18:12.188Z,75.33
2023-03-30T10:19:12.216Z,75.90
2023-03-30T10:20:14.139Z,74.65
2023-03-30T10:21:12.124Z,74.75
2023-03-30T10:22:12.109Z,74.55
2023-03-30T10:23:12.105Z,75.05
2023-03-30T10:24:12.261Z,75.23
2023-03-30T10:25:12.092Z,76.25
2023-03-30T10:26:12.071Z,76.79
2023-03-30T10:27:12.052Z,77.33
2023-03-30T10:28:12.114Z,76.35
2023-03-30T10:29:12.116Z,76.86
2023-03-30T10:30:12.076Z,77.87
2023-03-30T10:31:12.095Z,75.84
2023-03-30T10:32:12.003Z,76.65
2023-03-30T10:33:11.991Z,74.52
2023-03-30T10:34:11.977Z,76.08
2023-03-30T10:35:11.973Z,75.98
2023-03-30T10:36:12.081Z,75.67
2023-03-30T10:37:11.966Z,76.49
2023-03-30T10:38:12.079Z,75.30
2023-03-30T10:39:11.925Z,74.90
2023-03-30T10:40:11.917Z,74.99
2023-03-30T10:41:11.906Z,75.51
2023-03-30T10:42:11.896Z,75.40
2023-03-30T10:43:11.885Z,73.16
2023-03-30T10:44:11.881Z,74.01
2023-03-30T10:45:11.962Z,74.18
2023-03-30T10:46:19.304Z,74.38
2023-03-30T10:47:11.877Z,75.10
2023-03-30T10:48:11.864Z,75.30
2023-03-30T10:49:11.817Z,75.10
2023-03-30T10:50:11.807Z,74.90
2023-03-30T10:51:11.859Z,74.55
2023-03-30T10:52:11.793Z,73.94
2023-03-30T10:53:11.777Z,74.11
2023-03-30T10:54:11.846Z,74.15
2023-03-30T10:55:11.745Z,74.35
2023-03-30T10:56:11.840Z,74.79
2023-03-30T10:57:11.846Z,75.40
2023-03-30T10:58:11.825Z,76.01
2023-03-30T10:59:11.738Z,76.01
2023-03-30T11:00:11.699Z,75.40
2023-03-30T11:01:11.788Z,76.01
2023-03-30T11:02:11.697Z,75.92
2023-03-30T11:03:11.693Z,75.88
2023-03-30T11:04:22.532Z,75.54
2023-03-30T11:05:11.748Z,75.13
2023-03-30T11:06:11.686Z,74.24
2023-03-30T11:07:11.633Z,72.99
2023-03-30T11:08:11.627Z,72.58
2023-03-30T11:09:11.594Z,71.87
2023-03-30T11:10:11.611Z,72.08
2023-03-30T11:11:11.579Z,71.64
2023-03-30T11:12:11.580Z,70.99
2023-03-30T11:13:11.551Z,71.40
2023-03-30T11:14:11.570Z,71.73
2023-03-30T11:15:11.525Z,71.84
2023-03-30T11:16:11.581Z,71.67
2023-03-30T11:17:11.684Z,71.87
2023-03-30T11:18:11.614Z,72.58
2023-03-30T11:19:11.608Z,71.26
2023-03-30T11:20:11.487Z,70.45
2023-03-30T11:21:11.468Z,70.99
2023-03-30T11:22:11.606Z,72.72
2023-03-30T11:23:11.461Z,73.23
2023-03-30T11:24:11.427Z,73.23
2023-03-30T11:25:11.419Z,72.41
2023-03-30T11:26:11.417Z,73.13
2023-03-30T11:27:11.484Z,73.50
2023-03-30T11:28:11.382Z,72.89
2023-03-30T11:29:11.376Z,72.89
2023-03-30T11:30:11.366Z,72.48
2023-03-30T11:31:11.367Z,73.63
2023-03-30T11:32:11.397Z,73.60
2023-03-30T11:33:11.375Z,72.48
2023-03-30T11:34:11.341Z,69.17
2023-03-30T11:35:11.320Z,65.80
2023-03-30T11:36:11.389Z,65.93
2023-03-30T11:37:11.284Z,65.86
2023-03-30T11:38:11.267Z,66.74
2023-03-30T11:39:21.292Z,68.05
2023-03-30T11:40:11.260Z,69.60
2023-03-30T11:41:11.259Z,69.33
2023-03-30T11:42:11.259Z,70.68
2023-03-30T11:43:11.206Z,71.33
2023-03-30T11:44:11.245Z,71.02
2023-03-30T11:45:11.178Z,71.64
2023-03-30T11:46:11.521Z,70.92
2023-03-30T11:47:11.173Z,72.14
2023-03-30T11:48:11.251Z,70.38
2023-03-30T11:49:11.183Z,69.06
2023-03-30T11:50:11.140Z,65.39
2023-03-30T11:51:11.298Z,64.58
2023-03-30T11:52:11.118Z,63.10
2023-03-30T11:53:11.176Z,61.71
2023-03-30T11:54:11.099Z,58.95
2023-03-30T11:55:11.082Z,58.25
2023-03-30T11:56:11.079Z,58.80
2023-03-30T11:57:11.194Z,57.08
2023-03-30T11:58:11.060Z,57.81
2023-03-30T11:59:11.041Z,59.28
2023-03-30T12:00:11.057Z,60.48
2023-03-30T12:01:11.027Z,62.46
2023-03-30T12:02:11.014Z,64.11
2023-03-30T12:03:11.111Z,64.27
2023-03-30T12:04:11.113Z,64.84
2023-03-30T12:05:11.022Z,68.15
2023-03-30T12:06:10.992Z,72.55
2023-03-30T12:07:11.039Z,74.31
2023-03-30T12:08:10.933Z,75.63
2023-03-30T12:09:11.009Z,76.99
2023-03-30T12:10:10.934Z,77.81
2023-03-30T12:11:10.916Z,78.01
2023-03-30T12:12:10.900Z,78.45
2023-03-30T12:13:10.886Z,78.35
2023-03-30T12:14:10.929Z,78.25
2023-03-30T12:15:10.891Z,78.66
2023-03-30T12:16:10.953Z,78.35
2023-03-30T12:17:10.901Z,78.31
2023-03-30T12:18:10.900Z,77.43
2023-03-30T12:19:10.829Z,73.50
2023-03-30T12:20:10.921Z,72.65
2023-03-30T12:21:10.795Z,73.73
2023-03-30T12:22:10.810Z,73.66
2023-03-30T12:23:10.812Z,69.14
2023-03-30T12:24:10.760Z,66.96
2023-03-30T12:25:10.770Z,64.78
2023-03-30T12:26:10.747Z,61.56
2023-03-30T12:27:11.922Z,59.33
2023-03-30T12:28:10.730Z,62.57
2023-03-30T12:30:10.836Z,65.62
2023-03-30T12:31:10.971Z,65.53
2023-03-30T12:32:10.711Z,66.41
2023-03-30T12:33:10.711Z,66.74
2023-03-30T12:34:10.684Z,67.38
2023-03-30T12:35:10.649Z,67.95
2023-03-30T12:36:10.677Z,69.68
2023-03-30T12:37:10.634Z,69.71
2023-03-30T12:38:10.636Z,68.70
2023-03-30T12:39:10.619Z,69.51
2023-03-30T12:40:10.663Z,66.44
2023-03-30T12:41:10.707Z,67.82
2023-03-30T12:42:10.592Z,69.37
2023-03-30T12:43:10.585Z,69.14
2023-03-30T12:44:10.592Z,66.04
2023-03-30T12:45:10.530Z,64.27
2023-03-30T12:46:10.606Z,61.05
2023-03-30T12:47:12.306Z,59.17
2023-03-30T12:48:10.593Z,59.79
2023-03-30T12:49:10.512Z,56.82
2023-03-30T12:50:10.496Z,56.49
2023-03-30T12:51:10.475Z,56.06
2023-03-30T12:52:10.464Z,53.02
2023-03-30T12:53:10.479Z,53.82